capmetro.org alexa rank chart, capmetro.org alexa rank daily changes

capmetro.org alexa rank chart, capmetro.org alexa rank daily changes

capmetro.org
Actual rank:
156 825

RANK HISTORY

Date Rank Diff
2017/10/14 156 825 -521
2017/10/13 157 346 +2 218
2017/10/12 155 128 -4 020
2017/10/11 159 148 +882
2017/10/10 158 266 +3 529
2017/10/09 154 737 +1 081
2017/10/08 153 656 -3 413
2017/10/07 157 069 -1 680
2017/10/06 158 749 +3 694
2017/10/05 155 055 +1 490
2017/10/04 153 565 +710
2017/10/03 152 855 +1 043
2017/10/02 151 812 +1 267
2017/10/01 150 545 +3 686
2017/09/30 146 859 +3 465
2017/09/29 143 394 -1 052
2017/09/28 144 446 +977
2017/09/27 143 469 +1 075
2017/09/26 142 394 +4 507
2017/09/25 137 887 -2 220
2017/09/24 140 107 +1 364
2017/09/23 138 743 -5 125
2017/09/22 143 868 +356
2017/09/20 143 512 -1 895
2017/09/19 145 407 -14
2017/09/18 145 421 +152
2017/09/17 145 269 +1 966
2017/09/16 143 303 +2 863
2017/09/15 140 440 -778
2017/09/14 141 218 +1 447
2017/09/13 139 771 -1 790
2017/09/12 141 561 +507
2017/09/11 141 054 -63
2017/09/10 141 117 +694
2017/09/09 140 423 -4 854
2017/09/08 145 277 -1 174
2017/09/07 146 451 +632
2017/09/06 145 819 -4 887
2017/09/05 150 706 -3 828
2017/09/04 154 534 -2 746
2017/09/03 157 280 +315
2017/09/02 156 965 -2 358
2017/09/01 159 323 -4 484
2017/08/31 163 807 -2 268
2017/08/30 166 075 -3 726
2017/08/29 169 801 -1 283
2017/08/28 171 084 -40
2017/08/27 171 124 -4 813
2017/08/26 175 937 -6 464
2017/08/25 182 401 -2 107
2017/08/24 184 508 -5 398
2017/08/23 189 906 +3 792
2017/08/22 186 114 +941
2017/08/21 185 173 +3 043
2017/08/20 182 130 -2 420
2017/08/19 184 550 +3 758
2017/08/18 180 792 -2 745
2017/08/17 183 537 -2 779
2017/08/16 186 316

WIDGET FOR YOUR SITE

DOMAINS WITH THE NEAREST RANK

Domain Rank
muagomagazine.com 156 820
p-bandai.asia 156 821
057info.hr 156 822
brinkmann-du.de 156 823
expedia.co.id 156 824
capmetro.org 156 825
aerospace.org 156 826
tubezoo.net 156 827
howtoubuntu.org 156 828
stilettogirl.com 156 829
wyunion.com 156 830

DOMAINS WITH THE NEAREST RANK BY TLD .org

Domain Rank
citefactor.org 156 713
wargate-project.org 156 719
lfcfms.org 156 743
advocatesforyouth.org 156 745
vpforums.org 156 779
capmetro.org 156 825
aerospace.org 156 826
howtoubuntu.org 156 828
navcoin.org 156 838
spjain.org 156 894
homedistiller.org 156 909